createdAt,value
2022-09-21T00:01:23.980Z,9.80
2022-09-21T00:03:55.622Z,9.90
2022-09-21T00:06:24.570Z,10.00
2022-09-21T00:08:52.600Z,9.90
2022-09-21T00:11:25.051Z,9.90
2022-09-21T00:13:54.242Z,9.80
2022-09-21T00:16:21.327Z,9.80
2022-09-21T00:18:48.481Z,9.80
2022-09-21T00:21:16.502Z,9.70
2022-09-21T00:23:44.199Z,9.60
2022-09-21T00:26:21.004Z,9.60
2022-09-21T00:28:51.468Z,9.60
2022-09-21T00:31:18.727Z,9.60
2022-09-21T00:33:45.731Z,9.50
2022-09-21T00:36:16.579Z,9.50
2022-09-21T00:38:44.197Z,9.40
2022-09-21T00:41:12.322Z,9.40
2022-09-21T00:44:08.107Z,9.30
2022-09-21T00:46:37.086Z,9.20
2022-09-21T00:49:03.776Z,9.20
2022-09-21T00:51:30.824Z,9.20
2022-09-21T00:54:14.750Z,9.40
2022-09-21T00:56:43.374Z,9.50
2022-09-21T00:59:10.558Z,9.50
2022-09-21T01:01:38.396Z,9.40
2022-09-21T01:04:07.044Z,9.20
2022-09-21T01:06:36.928Z,9.30
2022-09-21T01:09:03.846Z,9.30
2022-09-21T01:12:16.054Z,9.20
2022-09-21T01:14:42.663Z,9.20
2022-09-21T01:17:18.622Z,9.10
2022-09-21T01:20:13.082Z,9.20
2022-09-21T01:22:58.577Z,9.30
2022-09-21T01:25:34.095Z,9.30
2022-09-21T01:28:29.252Z,9.30
2022-09-21T01:31:00.625Z,9.30
2022-09-21T01:33:31.546Z,9.30
2022-09-21T01:36:04.132Z,9.30
2022-09-21T01:38:38.078Z,9.30
2022-09-21T01:41:08.046Z,9.30
2022-09-21T01:43:39.586Z,9.20
2022-09-21T01:46:10.860Z,9.20
2022-09-21T01:48:41.890Z,9.10
2022-09-21T01:51:12.245Z,9.00
2022-09-21T01:53:47.539Z,9.00
2022-09-21T01:56:18.618Z,9.00
2022-09-21T01:59:06.701Z,9.00
2022-09-21T02:01:44.528Z,9.00
2022-09-21T02:04:13.540Z,9.00
2022-09-21T02:06:43.621Z,9.00
2022-09-21T02:09:11.203Z,9.00
2022-09-21T02:11:38.976Z,9.00
2022-09-21T02:14:10.335Z,8.90
2022-09-21T02:16:40.094Z,8.90
2022-09-21T02:19:15.997Z,8.90
2022-09-21T02:21:54.608Z,8.80
2022-09-21T02:24:35.478Z,8.80
2022-09-21T02:27:26.078Z,8.70
2022-09-21T02:30:01.828Z,8.70
2022-09-21T02:32:36.075Z,8.50
2022-09-21T02:35:17.247Z,8.50
2022-09-21T02:37:56.687Z,8.50
2022-09-21T02:40:33.428Z,8.40
2022-09-21T02:43:06.092Z,8.30
2022-09-21T02:45:42.520Z,8.20
2022-09-21T02:48:14.414Z,8.30
2022-09-21T02:50:57.210Z,8.30
2022-09-21T02:53:37.022Z,8.40
2022-09-21T02:56:07.295Z,8.40
2022-09-21T02:58:59.801Z,8.10
2022-09-21T03:01:27.893Z,8.10
2022-09-21T03:03:55.077Z,8.00
2022-09-21T03:06:21.898Z,7.90
2022-09-21T03:08:48.814Z,8.00
2022-09-21T03:11:19.819Z,8.10
2022-09-21T03:13:46.722Z,8.20
2022-09-21T03:16:13.659Z,8.10
2022-09-21T03:18:41.885Z,8.10
2022-09-21T03:21:08.759Z,8.20
2022-09-21T03:23:35.463Z,8.40
2022-09-21T03:26:02.533Z,8.20
2022-09-21T03:28:29.184Z,8.00
2022-09-21T03:30:55.887Z,8.10
2022-09-21T03:33:22.563Z,8.00
2022-09-21T03:35:49.676Z,8.10
2022-09-21T03:38:16.849Z,8.30
2022-09-21T03:40:48.059Z,8.10
2022-09-21T03:43:15.421Z,7.90
2022-09-21T03:45:42.671Z,7.70
2022-09-21T03:48:10.984Z,7.70
2022-09-21T03:50:38.656Z,7.60
2022-09-21T03:53:05.814Z,7.60
2022-09-21T03:55:34.292Z,7.70
2022-09-21T03:58:00.960Z,8.00
2022-09-21T04:00:28.557Z,8.00
2022-09-21T04:02:55.614Z,8.00
2022-09-21T04:05:22.955Z,7.80
2022-09-21T04:07:50.093Z,7.60
2022-09-21T04:10:19.743Z,7.50
2022-09-21T04:12:47.244Z,7.40
2022-09-21T04:15:23.362Z,7.30
2022-09-21T04:17:54.170Z,7.30
2022-09-21T04:20:21.786Z,7.30
2022-09-21T04:22:48.553Z,7.30
2022-09-21T04:25:16.021Z,7.20
2022-09-21T04:27:42.747Z,7.20
2022-09-21T04:30:12.141Z,7.10
2022-09-21T04:32:39.310Z,7.20
2022-09-21T04:35:06.308Z,7.40
2022-09-21T04:37:32.972Z,7.50
2022-09-21T04:39:59.765Z,7.40
2022-09-21T04:42:27.582Z,7.20
2022-09-21T04:44:54.318Z,7.20
2022-09-21T04:47:23.596Z,6.90
2022-09-21T04:49:50.446Z,6.60
2022-09-21T04:52:19.109Z,6.50
2022-09-21T04:54:46.711Z,6.60
2022-09-21T04:57:14.642Z,6.90
2022-09-21T04:59:41.347Z,7.00
2022-09-21T05:02:08.023Z,7.10
2022-09-21T05:04:34.705Z,7.00
2022-09-21T05:07:01.399Z,7.00
2022-09-21T05:09:46.750Z,7.10
2022-09-21T05:12:13.410Z,7.20
2022-09-21T05:14:40.985Z,7.10
2022-09-21T05:17:07.660Z,7.00
2022-09-21T05:19:34.427Z,6.80
2022-09-21T05:22:01.152Z,7.00
2022-09-21T05:24:27.830Z,7.00
2022-09-21T05:26:54.436Z,7.00
2022-09-21T05:29:21.436Z,7.10
2022-09-21T05:31:50.422Z,7.10
2022-09-21T05:34:38.993Z,7.10
2022-09-21T05:37:08.714Z,7.00
2022-09-21T05:39:35.869Z,6.90
2022-09-21T05:42:03.060Z,7.00
2022-09-21T05:44:29.936Z,7.10
2022-09-21T05:47:07.860Z,6.90
2022-09-21T05:49:37.596Z,6.90
2022-09-21T05:52:20.203Z,6.90
2022-09-21T05:55:00.566Z,7.00
2022-09-21T05:57:41.055Z,7.10
2022-09-21T06:00:20.865Z,7.00
2022-09-21T06:03:18.166Z,6.80
2022-09-21T06:05:46.418Z,7.20
2022-09-21T06:08:13.226Z,7.40
2022-09-21T06:10:39.855Z,7.30
2022-09-21T06:13:06.598Z,7.30
2022-09-21T06:15:38.476Z,7.20
2022-09-21T06:18:06.907Z,7.20
2022-09-21T06:20:33.655Z,7.10
2022-09-21T06:23:04.635Z,7.10
2022-09-21T06:25:31.362Z,7.20
2022-09-21T06:28:05.910Z,7.20
2022-09-21T06:30:34.988Z,7.30
2022-09-21T06:33:03.059Z,7.20
2022-09-21T06:35:30.906Z,7.30
2022-09-21T06:38:06.654Z,7.30
2022-09-21T06:40:35.695Z,7.50
2022-09-21T06:43:04.078Z,7.60
2022-09-21T06:45:31.191Z,7.70
2022-09-21T06:47:57.890Z,7.80
2022-09-21T06:50:25.084Z,7.70
2022-09-21T06:52:51.723Z,7.80
2022-09-21T06:55:18.457Z,7.90
2022-09-21T06:57:46.770Z,8.00
2022-09-21T07:00:14.652Z,8.10
2022-09-21T07:02:45.567Z,8.20
2022-09-21T07:05:13.133Z,8.30
2022-09-21T07:07:40.417Z,8.40
2022-09-21T07:10:13.275Z,8.50
2022-09-21T07:12:41.685Z,8.60
2022-09-21T07:15:10.287Z,8.70
2022-09-21T07:17:39.494Z,8.80
2022-09-21T07:20:07.947Z,8.90
2022-09-21T07:22:35.805Z,8.90
2022-09-21T07:25:04.251Z,9.00
2022-09-21T07:27:32.373Z,9.10
2022-09-21T07:29:59.245Z,9.10
2022-09-21T07:32:26.195Z,9.20
2022-09-21T07:34:57.234Z,9.30
2022-09-21T07:37:25.275Z,9.30
2022-09-21T07:39:52.940Z,9.30
2022-09-21T07:42:21.837Z,9.40
2022-09-21T07:44:50.235Z,9.50
2022-09-21T07:47:17.959Z,9.50
2022-09-21T07:49:46.595Z,9.70
2022-09-21T07:52:13.717Z,9.70
2022-09-21T07:54:40.363Z,9.70
2022-09-21T07:57:25.929Z,9.80
2022-09-21T07:59:52.569Z,9.90
2022-09-21T08:02:19.265Z,9.90
2022-09-21T08:04:46.175Z,10.00
2022-09-21T08:07:13.268Z,10.10
2022-09-21T08:09:40.851Z,10.20
2022-09-21T08:12:08.917Z,10.20
2022-09-21T08:14:36.342Z,10.40
2022-09-21T08:17:03.137Z,10.40
2022-09-21T08:19:29.835Z,10.60
2022-09-21T08:21:58.049Z,10.80
2022-09-21T08:24:26.779Z,10.80
2022-09-21T08:26:55.713Z,10.70
2022-09-21T08:29:23.250Z,10.90
2022-09-21T08:31:50.144Z,10.90
2022-09-21T08:34:16.889Z,10.90
2022-09-21T08:36:44.005Z,11.00
2022-09-21T08:39:10.744Z,11.10
2022-09-21T08:41:43.406Z,11.30
2022-09-21T08:44:24.028Z,11.40
2022-09-21T08:47:11.494Z,11.50
2022-09-21T08:49:40.746Z,11.60
2022-09-21T08:52:15.675Z,11.70
2022-09-21T08:54:53.869Z,11.80
2022-09-21T08:57:23.000Z,12.00
2022-09-21T08:59:50.443Z,12.10
2022-09-21T09:02:35.523Z,12.00
2022-09-21T09:05:26.964Z,11.90
2022-09-21T09:08:19.351Z,12.10
2022-09-21T09:10:58.915Z,12.10
2022-09-21T09:13:31.480Z,12.30
2022-09-21T09:15:58.158Z,12.40
2022-09-21T09:18:51.378Z,12.50
2022-09-21T09:21:38.238Z,12.70
2022-09-21T09:24:19.563Z,12.80
2022-09-21T09:26:52.902Z,12.70
2022-09-21T09:29:22.275Z,12.70
2022-09-21T09:31:52.119Z,12.60
2022-09-21T09:34:24.951Z,12.70
2022-09-21T09:36:59.898Z,13.20
2022-09-21T09:39:30.169Z,13.20
2022-09-21T09:42:17.067Z,13.20
2022-09-21T09:45:01.896Z,13.40
2022-09-21T09:47:36.610Z,13.10
2022-09-21T09:50:03.285Z,13.40
2022-09-21T09:52:31.508Z,13.60
2022-09-21T09:55:00.053Z,13.20
2022-09-21T09:57:32.113Z,13.30
2022-09-21T10:00:08.960Z,13.70
2022-09-21T10:03:08.294Z,14.10
2022-09-21T10:05:38.555Z,13.80
2022-09-21T10:08:05.286Z,13.90
2022-09-21T10:10:33.840Z,13.90
2022-09-21T10:13:26.945Z,14.30
2022-09-21T10:16:00.463Z,14.60
2022-09-21T10:18:43.852Z,14.60
2022-09-21T10:21:24.636Z,14.70
2022-09-21T10:24:00.061Z,14.70
2022-09-21T10:26:42.017Z,14.90
2022-09-21T10:29:23.858Z,14.80
2022-09-21T10:32:26.917Z,14.90
2022-09-21T10:35:15.781Z,15.10
2022-09-21T10:37:48.743Z,15.20
2022-09-21T10:40:21.008Z,15.10
2022-09-21T10:43:00.432Z,15.00
2022-09-21T10:45:32.407Z,15.00
2022-09-21T10:48:08.982Z,15.40
2022-09-21T10:50:43.097Z,15.50
2022-09-21T10:53:09.748Z,15.70
2022-09-21T10:55:58.465Z,15.50
2022-09-21T10:58:35.430Z,15.70
2022-09-21T11:01:20.741Z,15.80
2022-09-21T11:04:00.439Z,15.80
2022-09-21T11:06:39.151Z,15.60
2022-09-21T11:09:18.221Z,15.50
2022-09-21T11:12:08.541Z,15.40
2022-09-21T11:14:45.900Z,15.40
2022-09-21T11:17:39.373Z,15.80
2022-09-21T11:20:14.217Z,15.90
2022-09-21T11:23:01.995Z,16.20
2022-09-21T11:25:43.630Z,16.20
2022-09-21T11:28:19.548Z,16.30
2022-09-21T11:30:58.750Z,16.10
2022-09-21T11:33:55.664Z,16.10
2022-09-21T11:36:46.881Z,16.30
2022-09-21T11:39:59.996Z,16.50
2022-09-21T11:42:45.334Z,16.40
2022-09-21T11:45:50.597Z,16.00
2022-09-21T11:48:42.974Z,16.30
2022-09-21T11:51:24.038Z,16.40
2022-09-21T11:54:25.596Z,16.70
2022-09-21T11:57:19.050Z,16.60
2022-09-21T12:00:04.741Z,16.50
2022-09-21T12:02:41.290Z,16.70
2022-09-21T12:05:26.909Z,16.80
2022-09-21T12:08:31.208Z,16.90
2022-09-21T12:11:21.710Z,17.00
2022-09-21T12:14:25.696Z,17.00
2022-09-21T12:17:00.004Z,17.30
2022-09-21T12:19:40.018Z,16.90
2022-09-21T12:22:17.328Z,17.00
2022-09-21T12:24:53.160Z,17.00
2022-09-21T12:27:31.583Z,17.00
2022-09-21T12:30:13.364Z,17.10
2022-09-21T12:32:53.215Z,17.20
2022-09-21T12:35:40.205Z,17.40
2022-09-21T12:38:25.951Z,17.30
2022-09-21T12:41:05.230Z,17.30
2022-09-21T12:43:55.579Z,17.20
2022-09-21T12:46:25.690Z,17.30
2022-09-21T12:48:53.097Z,17.50
2022-09-21T12:51:29.598Z,17.30
2022-09-21T12:54:00.503Z,17.40
2022-09-21T12:57:23.823Z,17.60
2022-09-21T13:00:10.832Z,17.60
2022-09-21T13:02:49.922Z,17.70
2022-09-21T13:05:40.650Z,17.90
2022-09-21T13:08:25.456Z,17.70
2022-09-21T13:11:00.872Z,17.80
2022-09-21T13:13:38.430Z,17.90
2022-09-21T13:16:24.587Z,17.90
2022-09-21T13:19:00.209Z,17.90
2022-09-21T13:21:31.271Z,18.00
2022-09-21T13:24:03.575Z,18.00
2022-09-21T13:26:55.302Z,17.90
2022-09-21T13:29:22.208Z,17.70
2022-09-21T13:32:14.017Z,17.90
2022-09-21T13:34:42.742Z,17.80
2022-09-21T13:37:14.053Z,17.70
2022-09-21T13:40:01.643Z,17.90
2022-09-21T13:42:49.169Z,18.00
2022-09-21T13:45:17.875Z,18.00
2022-09-21T13:47:47.214Z,18.10
2022-09-21T13:50:44.582Z,18.20
2022-09-21T13:53:35.807Z,18.40
2022-09-21T13:56:16.702Z,18.20
2022-09-21T13:58:46.931Z,18.00
2022-09-21T14:01:42.608Z,18.00
2022-09-21T14:04:48.376Z,18.10
2022-09-21T14:07:15.134Z,18.00
2022-09-21T14:09:53.680Z,18.00
2022-09-21T14:12:25.131Z,18.20
2022-09-21T14:15:32.310Z,18.20
2022-09-21T14:18:17.131Z,18.20
2022-09-21T14:21:19.725Z,18.20
2022-09-21T14:24:16.935Z,18.30
2022-09-21T14:26:43.720Z,18.20
2022-09-21T14:29:28.018Z,18.20
2022-09-21T14:31:58.668Z,18.20
2022-09-21T14:34:35.559Z,18.00
2022-09-21T14:37:06.253Z,18.10
2022-09-21T14:39:40.914Z,18.00
2022-09-21T14:42:17.264Z,18.10
2022-09-21T14:44:44.683Z,18.00
2022-09-21T14:47:25.432Z,18.10
2022-09-21T14:50:04.070Z,17.90
2022-09-21T14:52:57.357Z,18.00
2022-09-21T14:55:33.411Z,18.00
2022-09-21T14:58:29.472Z,18.10
2022-09-21T15:00:58.881Z,18.10
2022-09-21T15:03:48.889Z,18.10
2022-09-21T15:06:38.209Z,18.00
2022-09-21T15:09:51.716Z,17.90
2022-09-21T15:12:22.934Z,17.90
2022-09-21T15:15:20.316Z,17.90
2022-09-21T15:17:59.711Z,18.00
2022-09-21T15:20:29.859Z,18.00
2022-09-21T15:22:58.449Z,18.00
2022-09-21T15:25:28.049Z,18.00
2022-09-21T15:27:55.163Z,18.00
2022-09-21T15:30:26.154Z,17.90
2022-09-21T15:32:56.072Z,17.90
2022-09-21T15:35:24.205Z,17.90
2022-09-21T15:37:51.780Z,17.70
2022-09-21T15:40:33.175Z,17.70
2022-09-21T15:43:20.927Z,17.60
2022-09-21T15:46:04.272Z,17.50
2022-09-21T15:48:42.101Z,17.50
2022-09-21T15:51:23.507Z,17.60
2022-09-21T15:53:55.840Z,17.70
2022-09-21T15:56:26.012Z,17.60
2022-09-21T15:59:07.759Z,17.70
2022-09-21T16:01:44.223Z,17.50
2022-09-21T16:04:23.337Z,17.50
2022-09-21T16:07:04.114Z,17.50
2022-09-21T16:09:40.790Z,17.40
2022-09-21T16:12:37.786Z,17.40
2022-09-21T16:15:29.106Z,17.40
2022-09-21T16:17:58.729Z,17.30
2022-09-21T16:20:50.610Z,17.20
2022-09-21T16:23:24.254Z,17.20
2022-09-21T16:26:00.706Z,17.00
2022-09-21T16:28:29.376Z,17.10
2022-09-21T16:30:58.941Z,17.00
2022-09-21T16:33:44.002Z,16.90
2022-09-21T16:36:20.090Z,16.80
2022-09-21T16:38:55.793Z,16.70
2022-09-21T16:41:24.833Z,16.60
2022-09-21T16:43:52.070Z,16.50
2022-09-21T16:46:18.938Z,16.70
2022-09-21T16:48:45.659Z,16.50
2022-09-21T16:51:14.384Z,16.30
2022-09-21T16:53:41.401Z,16.30
2022-09-21T16:56:15.320Z,16.40
2022-09-21T16:58:45.754Z,16.30
2022-09-21T17:01:15.443Z,16.10
2022-09-21T17:03:42.590Z,15.90
2022-09-21T17:06:17.344Z,15.90
2022-09-21T17:08:48.167Z,15.90
2022-09-21T17:11:19.791Z,15.90
2022-09-21T17:13:50.508Z,15.90
2022-09-21T17:16:19.403Z,15.70
2022-09-21T17:18:47.643Z,15.60
2022-09-21T17:21:15.556Z,15.60
2022-09-21T17:23:42.640Z,15.60
2022-09-21T17:26:21.134Z,15.50
2022-09-21T17:28:48.176Z,15.30
2022-09-21T17:31:21.028Z,15.10
2022-09-21T17:33:50.296Z,15.00
2022-09-21T17:36:18.405Z,14.90
2022-09-21T17:38:45.434Z,14.90
2022-09-21T17:41:25.657Z,14.70
2022-09-21T17:44:34.620Z,14.60
2022-09-21T17:47:05.649Z,14.50
2022-09-21T17:49:32.420Z,14.50
2022-09-21T17:52:17.596Z,14.30
2022-09-21T17:54:45.019Z,14.30
2022-09-21T17:57:40.578Z,14.20
2022-09-21T18:00:16.358Z,14.10
2022-09-21T18:02:43.546Z,14.00
2022-09-21T18:05:24.834Z,14.00
2022-09-21T18:07:52.424Z,13.90
2022-09-21T18:10:25.903Z,13.90
2022-09-21T18:13:01.477Z,13.80
2022-09-21T18:15:46.778Z,13.90
2022-09-21T18:18:20.224Z,13.90
2022-09-21T18:21:02.333Z,13.80
2022-09-21T18:23:47.793Z,13.70
2022-09-21T18:26:16.478Z,13.70
2022-09-21T18:28:45.987Z,13.60
2022-09-21T18:31:32.469Z,13.60
2022-09-21T18:34:22.228Z,13.60
2022-09-21T18:37:12.927Z,13.50
2022-09-21T18:40:38.145Z,13.40
2022-09-21T18:43:18.959Z,13.30
2022-09-21T18:46:01.956Z,13.20
2022-09-21T18:49:00.517Z,13.20
2022-09-21T18:51:45.928Z,13.10
2022-09-21T18:54:23.447Z,13.10
2022-09-21T18:56:50.456Z,13.00
2022-09-21T18:59:17.785Z,12.90
2022-09-21T19:01:46.973Z,12.80
2022-09-21T19:04:14.890Z,12.80
2022-09-21T19:07:13.685Z,12.80
2022-09-21T19:09:44.369Z,12.70
2022-09-21T19:12:41.885Z,12.60
2022-09-21T19:15:14.520Z,12.50
2022-09-21T19:17:49.936Z,12.50
2022-09-21T19:20:29.179Z,12.50
2022-09-21T19:23:25.094Z,12.50
2022-09-21T19:25:56.778Z,12.40
2022-09-21T19:28:32.638Z,12.20
2022-09-21T19:31:07.794Z,12.00
2022-09-21T19:33:51.157Z,11.90
2022-09-21T19:36:19.211Z,11.90
2022-09-21T19:38:46.243Z,11.70
2022-09-21T19:41:40.437Z,11.70
2022-09-21T19:44:34.591Z,11.60
2022-09-21T19:47:23.981Z,11.50
2022-09-21T19:49:56.065Z,11.80
2022-09-21T19:52:31.721Z,11.80
2022-09-21T19:55:17.431Z,11.70
2022-09-21T19:58:03.248Z,11.70
2022-09-21T20:00:31.250Z,11.60
2022-09-21T20:03:33.972Z,11.50
2022-09-21T20:06:07.315Z,11.40
2022-09-21T20:08:52.111Z,11.40
2022-09-21T20:11:29.087Z,11.40
2022-09-21T20:14:35.514Z,11.40
2022-09-21T20:17:10.150Z,11.50
2022-09-21T20:19:48.839Z,11.30
2022-09-21T20:22:17.756Z,11.30
2022-09-21T20:24:54.267Z,11.20
2022-09-21T20:27:40.578Z,11.20
2022-09-21T20:30:13.063Z,11.10
2022-09-21T20:32:42.495Z,10.90
2022-09-21T20:35:24.395Z,10.80
2022-09-21T20:37:56.489Z,10.90
2022-09-21T20:40:26.805Z,10.90
2022-09-21T20:42:53.881Z,10.80
2022-09-21T20:45:20.719Z,10.70
2022-09-21T20:47:51.454Z,10.70
2022-09-21T20:50:19.101Z,10.70
2022-09-21T20:52:45.937Z,10.70
2022-09-21T20:55:17.201Z,10.70
2022-09-21T20:57:44.534Z,10.50
2022-09-21T21:00:13.959Z,10.40
2022-09-21T21:02:40.953Z,10.40
2022-09-21T21:05:08.774Z,10.40
2022-09-21T21:07:35.450Z,10.30
2022-09-21T21:10:02.584Z,10.30
2022-09-21T21:12:29.601Z,10.30
2022-09-21T21:14:58.462Z,10.20
2022-09-21T21:17:25.243Z,10.30
2022-09-21T21:19:52.136Z,10.20
2022-09-21T21:22:18.815Z,10.00
2022-09-21T21:24:45.682Z,10.10
2022-09-21T21:27:16.309Z,10.20
2022-09-21T21:29:50.135Z,10.10
2022-09-21T21:32:19.512Z,9.90
2022-09-21T21:34:46.449Z,9.90
2022-09-21T21:37:14.103Z,10.10
2022-09-21T21:39:40.767Z,9.90
2022-09-21T21:42:07.566Z,10.00
2022-09-21T21:44:34.387Z,10.10
2022-09-21T21:47:20.974Z,10.00
2022-09-21T21:49:48.374Z,9.90
2022-09-21T21:52:15.143Z,9.80
2022-09-21T21:54:41.771Z,9.60
2022-09-21T21:57:10.010Z,9.60
2022-09-21T21:59:37.062Z,9.70
2022-09-21T22:02:04.104Z,9.60
2022-09-21T22:04:30.907Z,9.60
2022-09-21T22:06:57.675Z,9.70
2022-09-21T22:09:24.396Z,9.80
2022-09-21T22:11:51.025Z,9.70
2022-09-21T22:14:18.491Z,9.60
2022-09-21T22:16:45.185Z,9.60
2022-09-21T22:19:12.046Z,9.40
2022-09-21T22:21:41.622Z,9.20
2022-09-21T22:24:09.274Z,9.60
2022-09-21T22:26:39.329Z,9.50
2022-09-21T22:29:07.969Z,9.70
2022-09-21T22:31:37.866Z,9.50
2022-09-21T22:34:05.653Z,9.40
2022-09-21T22:36:34.961Z,9.50
2022-09-21T22:39:02.188Z,9.50
2022-09-21T22:41:31.735Z,9.60
2022-09-21T22:43:59.453Z,9.50
2022-09-21T22:46:27.267Z,9.20
2022-09-21T22:48:53.922Z,9.10
2022-09-21T22:51:21.825Z,9.60
2022-09-21T22:53:49.879Z,9.50
2022-09-21T22:56:19.291Z,9.30
2022-09-21T22:58:48.428Z,9.50
2022-09-21T23:01:29.130Z,9.50
2022-09-21T23:03:59.472Z,9.40
2022-09-21T23:06:29.118Z,9.10
2022-09-21T23:08:57.127Z,9.20
2022-09-21T23:11:27.252Z,9.10
2022-09-21T23:13:55.247Z,9.30
2022-09-21T23:16:23.500Z,9.20
2022-09-21T23:18:50.953Z,8.90
2022-09-21T23:21:19.926Z,9.10
2022-09-21T23:23:46.899Z,9.10
2022-09-21T23:26:20.070Z,9.30
2022-09-21T23:28:52.023Z,9.20
2022-09-21T23:31:18.779Z,9.10
2022-09-21T23:33:48.162Z,9.10
2022-09-21T23:36:17.228Z,9.00
2022-09-21T23:38:45.405Z,9.00
2022-09-21T23:41:14.322Z,9.00
2022-09-21T23:43:42.463Z,8.80
2022-09-21T23:46:11.784Z,8.80
2022-09-21T23:48:39.181Z,8.80
2022-09-21T23:51:06.611Z,8.70
2022-09-21T23:53:34.330Z,8.60
2022-09-21T23:56:01.247Z,8.60
2022-09-21T23:58:28.301Z,8.60
